createdAt,value
2022-08-26T00:03:16.622Z,35.77
2022-08-26T00:08:23.697Z,38.20
2022-08-26T00:13:31.438Z,38.17
2022-08-26T00:18:38.921Z,30.23
2022-08-26T00:23:45.933Z,31.93
2022-08-26T00:28:53.601Z,29.80
2022-08-26T00:33:58.445Z,34.80
2022-08-26T00:39:03.481Z,36.83
2022-08-26T00:44:11.638Z,29.10
2022-08-26T00:49:19.937Z,35.43
2022-08-26T00:54:28.334Z,36.70
2022-08-26T00:59:36.434Z,31.50
2022-08-26T01:04:47.479Z,27.60
2022-08-26T01:09:52.536Z,34.10
2022-08-26T01:15:00.144Z,32.90
2022-08-26T01:20:13.267Z,36.10
2022-08-26T01:25:22.136Z,31.73
2022-08-26T01:30:28.109Z,30.53
2022-08-26T01:35:33.732Z,27.83
2022-08-26T01:40:43.821Z,41.63
2022-08-26T01:45:50.970Z,29.83
2022-08-26T01:50:57.488Z,34.60
2022-08-26T01:56:06.815Z,32.23
2022-08-26T02:01:13.685Z,38.57
2022-08-26T02:06:19.695Z,37.77
2022-08-26T02:11:27.386Z,38.07
2022-08-26T02:16:37.458Z,36.67
2022-08-26T02:21:43.849Z,37.80
2022-08-26T02:26:52.002Z,36.70
2022-08-26T02:31:57.712Z,39.33
2022-08-26T02:37:05.535Z,28.77
2022-08-26T02:42:13.766Z,29.87
2022-08-26T02:47:19.692Z,32.77
2022-08-26T02:52:29.861Z,34.47
2022-08-26T02:57:37.698Z,35.83
2022-08-26T03:02:42.912Z,37.07
2022-08-26T03:07:48.048Z,35.63
2022-08-26T03:12:55.675Z,30.13
2022-08-26T03:18:01.372Z,32.13
2022-08-26T03:23:08.083Z,32.97
2022-08-26T03:28:16.795Z,33.30
2022-08-26T03:33:24.526Z,35.57
2022-08-26T03:38:29.756Z,38.17
2022-08-26T03:43:37.443Z,32.87
2022-08-26T03:48:43.285Z,37.53
2022-08-26T03:53:49.396Z,38.87
2022-08-26T03:58:57.324Z,41.53
2022-08-26T04:04:03.264Z,29.07
2022-08-26T04:09:10.876Z,29.70
2022-08-26T04:14:20.787Z,29.93
2022-08-26T04:19:26.967Z,30.83
2022-08-26T04:24:32.015Z,37.63
2022-08-26T04:29:41.624Z,30.73
2022-08-26T04:34:46.525Z,26.07
2022-08-26T04:39:55.678Z,28.03
2022-08-26T04:45:05.928Z,32.23
2022-08-26T04:50:15.664Z,34.10
2022-08-26T04:55:38.738Z,32.80
2022-08-26T05:00:49.608Z,34.57
2022-08-26T05:05:54.831Z,35.93
2022-08-26T05:10:59.784Z,27.60
2022-08-26T05:16:11.642Z,40.17
2022-08-26T05:21:21.662Z,30.57
2022-08-26T05:26:30.111Z,27.47
2022-08-26T05:31:38.582Z,27.67
2022-08-26T05:36:43.620Z,26.70
2022-08-26T05:41:49.076Z,23.90
2022-08-26T05:46:56.678Z,29.57
2022-08-26T05:52:02.346Z,31.53
2022-08-26T05:57:07.744Z,34.67
2022-08-26T06:02:16.507Z,37.63
2022-08-26T06:07:42.976Z,40.73
2022-08-26T06:12:48.225Z,33.00
2022-08-26T06:17:55.727Z,24.40
2022-08-26T06:23:13.041Z,25.90
2022-08-26T06:28:17.963Z,24.93
2022-08-26T06:33:28.102Z,34.90
2022-08-26T06:38:33.163Z,24.40
2022-08-26T06:43:38.542Z,32.80
2022-08-26T06:48:47.348Z,30.65
2022-08-26T06:53:55.211Z,29.80
2022-08-26T06:59:00.621Z,25.73
2022-08-26T07:04:10.835Z,27.83
2022-08-26T07:09:15.955Z,19.02
2022-08-26T07:14:21.870Z,27.23
2022-08-26T07:19:31.632Z,31.38
2022-08-26T07:24:38.598Z,26.27
2022-08-26T07:29:44.965Z,26.88
2022-08-26T07:34:52.906Z,24.80
2022-08-26T07:39:58.254Z,25.60
2022-08-26T07:45:03.559Z,27.05
2022-08-26T07:50:12.019Z,26.08
2022-08-26T07:55:17.910Z,23.38
2022-08-26T08:00:23.115Z,27.02
2022-08-26T08:05:33.751Z,31.80
2022-08-26T08:10:40.347Z,28.73
2022-08-26T08:15:45.501Z,28.77
2022-08-26T08:20:59.478Z,23.83
2022-08-26T08:26:12.334Z,28.75
2022-08-26T08:31:52.433Z,28.83
2022-08-26T08:36:54.258Z,28.45
2022-08-26T08:42:24.939Z,32.92
2022-08-26T08:47:35.230Z,23.30
2022-08-26T08:52:46.861Z,32.38
2022-08-26T08:58:03.363Z,25.13
2022-08-26T09:03:20.542Z,19.48
2022-08-26T09:08:35.227Z,20.60
2022-08-26T09:13:42.410Z,30.67
2022-08-26T09:19:01.944Z,28.30
2022-08-26T09:24:14.814Z,24.65
2022-08-26T09:29:27.821Z,27.20
2022-08-26T09:34:33.258Z,29.02
2022-08-26T09:39:42.237Z,24.90
2022-08-26T09:44:59.541Z,25.60
2022-08-26T09:50:09.827Z,29.13
2022-08-26T09:55:24.035Z,18.73
2022-08-26T10:00:34.092Z,29.48
2022-08-26T10:05:45.358Z,26.17
2022-08-26T10:10:56.497Z,27.10
2022-08-26T10:16:10.743Z,19.95
2022-08-26T10:21:22.349Z,25.20
2022-08-26T10:26:36.455Z,22.05
2022-08-26T10:31:47.864Z,21.02
2022-08-26T10:37:14.151Z,12.30
2022-08-26T10:42:29.109Z,8.85
2022-08-26T10:47:40.158Z,11.40
2022-08-26T10:52:58.724Z,8.95
2022-08-26T10:58:27.510Z,10.27
2022-08-26T11:03:41.122Z,10.18
2022-08-26T11:08:49.612Z,6.80
2022-08-26T11:14:08.495Z,3.85
2022-08-26T11:19:56.814Z,7.20
2022-08-26T11:25:13.026Z,4.07
2022-08-26T11:30:47.755Z,6.97
2022-08-26T11:36:11.967Z,5.80
2022-08-26T11:41:29.359Z,4.60
2022-08-26T11:46:37.802Z,5.95
2022-08-26T11:51:48.135Z,6.38
2022-08-26T11:56:55.286Z,4.05
2022-08-26T12:02:03.809Z,7.22
2022-08-26T12:07:11.646Z,7.35
2022-08-26T12:12:19.390Z,4.53
2022-08-26T12:17:30.511Z,6.78
2022-08-26T12:22:38.940Z,5.82
2022-08-26T12:27:53.587Z,9.25
2022-08-26T12:33:22.885Z,9.05
2022-08-26T12:38:29.823Z,8.57
2022-08-26T12:43:44.281Z,9.30
2022-08-26T12:48:53.505Z,4.93
2022-08-26T12:54:02.478Z,16.02
2022-08-26T12:59:13.407Z,8.35
2022-08-26T13:04:46.340Z,16.17
2022-08-26T13:09:52.543Z,16.50
2022-08-26T13:14:58.858Z,11.95
2022-08-26T13:20:07.061Z,17.40
2022-08-26T13:25:13.255Z,18.80
2022-08-26T13:30:18.370Z,19.02
2022-08-26T13:35:26.047Z,15.13
2022-08-26T13:40:34.453Z,26.98
2022-08-26T13:45:39.798Z,22.48
2022-08-26T13:50:48.198Z,16.52
2022-08-26T13:55:53.763Z,19.95
2022-08-26T14:01:00.101Z,14.25
2022-08-26T14:06:07.915Z,13.93
2022-08-26T14:11:13.049Z,14.15
2022-08-26T14:16:24.157Z,10.48
2022-08-26T14:21:34.183Z,13.95
2022-08-26T14:26:39.114Z,10.05
2022-08-26T14:31:44.232Z,8.27
2022-08-26T14:36:51.929Z,11.77
2022-08-26T14:41:59.085Z,18.08
2022-08-26T14:47:07.287Z,10.50
2022-08-26T14:52:14.828Z,10.05
2022-08-26T14:57:21.513Z,15.38
2022-08-26T15:02:32.688Z,12.35
2022-08-26T15:07:41.446Z,11.05
2022-08-26T15:12:46.911Z,13.23
2022-08-26T15:17:51.937Z,15.80
2022-08-26T15:23:03.297Z,10.57
2022-08-26T15:28:11.104Z,7.43
2022-08-26T15:33:16.129Z,9.88
2022-08-26T15:38:25.801Z,6.05
2022-08-26T15:43:30.820Z,8.13
2022-08-26T15:48:35.756Z,8.98
2022-08-26T15:53:43.420Z,10.05
2022-08-26T15:58:49.158Z,9.45
2022-08-26T16:03:55.113Z,14.80
2022-08-26T16:09:03.181Z,16.20
2022-08-26T16:14:09.164Z,11.38
2022-08-26T16:19:14.439Z,11.38
2022-08-26T16:24:28.392Z,10.65
2022-08-26T16:29:35.691Z,8.63
2022-08-26T16:34:47.132Z,8.95
2022-08-26T16:40:04.662Z,10.43
2022-08-26T16:45:11.011Z,11.82
2022-08-26T16:50:16.308Z,11.35
2022-08-26T16:55:25.367Z,13.10
2022-08-26T17:00:32.359Z,11.02
2022-08-26T17:05:37.522Z,10.90
2022-08-26T17:10:45.046Z,12.05
2022-08-26T17:15:58.382Z,10.55
2022-08-26T17:21:06.917Z,10.52
2022-08-26T17:26:15.101Z,8.68
2022-08-26T17:31:20.488Z,7.07
2022-08-26T17:36:27.642Z,10.07
2022-08-26T17:41:35.791Z,11.25
2022-08-26T17:46:43.956Z,9.45
2022-08-26T17:51:49.711Z,15.82
2022-08-26T17:56:57.330Z,8.93
2022-08-26T18:02:02.453Z,10.70
2022-08-26T18:07:07.663Z,9.13
2022-08-26T18:12:17.603Z,12.60
2022-08-26T18:17:22.648Z,10.83
2022-08-26T18:22:27.827Z,13.53
2022-08-26T18:27:36.230Z,10.97
2022-08-26T18:32:41.194Z,10.20
2022-08-26T18:37:46.967Z,9.73
2022-08-26T18:42:54.660Z,9.20
2022-08-26T18:48:02.669Z,9.23
2022-08-26T18:53:07.613Z,8.53
2022-08-26T18:58:16.492Z,11.43
2022-08-26T19:03:21.720Z,10.83
2022-08-26T19:08:26.659Z,11.03
2022-08-26T19:13:34.190Z,10.83
2022-08-26T19:18:39.272Z,10.77
2022-08-26T19:23:44.427Z,11.33
2022-08-26T19:28:51.893Z,11.77
2022-08-26T19:33:58.077Z,12.97
2022-08-26T19:39:07.701Z,9.10
2022-08-26T19:44:34.357Z,15.07
2022-08-26T19:49:40.070Z,10.13
2022-08-26T19:54:44.976Z,10.57
2022-08-26T19:59:52.496Z,9.20
2022-08-26T20:04:57.674Z,11.07
2022-08-26T20:10:03.917Z,10.30
2022-08-26T20:15:14.540Z,12.30
2022-08-26T20:20:35.075Z,12.60
2022-08-26T20:25:41.108Z,12.63
2022-08-26T20:30:49.744Z,13.30
2022-08-26T20:35:54.806Z,12.50
2022-08-26T20:40:59.990Z,10.57
2022-08-26T20:46:10.367Z,10.53
2022-08-26T20:51:20.723Z,10.67
2022-08-26T20:56:26.667Z,12.10
2022-08-26T21:01:42.044Z,14.57
2022-08-26T21:06:52.604Z,17.77
2022-08-26T21:11:59.316Z,16.07
2022-08-26T21:17:07.222Z,12.70
2022-08-26T21:22:12.653Z,13.50
2022-08-26T21:27:21.333Z,11.60
2022-08-26T21:32:34.303Z,12.47
2022-08-26T21:37:39.461Z,11.13
2022-08-26T21:42:44.520Z,13.00
2022-08-26T21:47:52.171Z,14.10
2022-08-26T21:52:57.089Z,12.83
2022-08-26T21:58:02.470Z,15.53
2022-08-26T22:03:10.123Z,15.43
2022-08-26T22:08:15.753Z,11.63
2022-08-26T22:13:21.436Z,12.00
2022-08-26T22:18:30.018Z,11.53
2022-08-26T22:23:35.569Z,12.63
2022-08-26T22:28:41.050Z,14.47
2022-08-26T22:33:48.749Z,15.07
2022-08-26T22:38:54.057Z,17.70
2022-08-26T22:43:59.171Z,12.53
2022-08-26T22:49:07.328Z,13.47
2022-08-26T22:54:12.280Z,13.20
2022-08-26T22:59:19.690Z,23.80
2022-08-26T23:04:27.413Z,18.70
2022-08-26T23:09:32.405Z,17.17
2022-08-26T23:14:37.481Z,15.03
2022-08-26T23:19:45.464Z,17.93
2022-08-26T23:24:50.555Z,18.73
2022-08-26T23:29:55.678Z,18.53
2022-08-26T23:35:03.333Z,15.20
2022-08-26T23:40:12.370Z,20.03
2022-08-26T23:45:22.220Z,18.27
2022-08-26T23:50:44.430Z,21.87
2022-08-26T23:55:51.027Z,13.77
